createdAt,value
2023-01-04T00:00:20.707Z,10.74
2023-01-04T00:01:20.466Z,10.31
2023-01-04T00:02:17.427Z,10.87
2023-01-04T00:03:14.536Z,10.99
2023-01-04T00:04:11.570Z,10.94
2023-01-04T00:05:09.080Z,10.99
2023-01-04T00:06:07.734Z,10.86
2023-01-04T00:07:04.532Z,11.17
2023-01-04T00:08:01.331Z,10.75
2023-01-04T00:08:58.227Z,11.11
2023-01-04T00:09:54.954Z,10.79
2023-01-04T00:10:51.748Z,10.75
2023-01-04T00:11:48.500Z,11.13
2023-01-04T00:12:45.334Z,11.14
2023-01-04T00:13:42.192Z,11.07
2023-01-04T00:14:39.038Z,11.09
2023-01-04T00:15:35.988Z,11.01
2023-01-04T00:16:32.938Z,11.07
2023-01-04T00:17:29.929Z,11.12
2023-01-04T00:18:26.765Z,10.22
2023-01-04T00:19:23.543Z,10.77
2023-01-04T00:20:20.346Z,11.04
2023-01-04T00:21:22.364Z,11.00
2023-01-04T00:22:19.191Z,11.01
2023-01-04T00:23:16.000Z,10.57
2023-01-04T00:24:15.394Z,10.88
2023-01-04T00:25:12.252Z,9.45
2023-01-04T00:26:19.991Z,10.69
2023-01-04T00:27:16.954Z,10.98
2023-01-04T00:28:13.727Z,10.98
2023-01-04T00:29:13.791Z,10.88
2023-01-04T00:30:10.879Z,10.97
2023-01-04T00:31:09.881Z,10.93
2023-01-04T00:32:06.633Z,10.87
2023-01-04T00:33:03.476Z,10.74
2023-01-04T00:34:03.045Z,10.66
2023-01-04T00:34:59.764Z,10.12
2023-01-04T00:35:56.964Z,10.82
2023-01-04T00:36:53.834Z,10.37
2023-01-04T00:37:52.139Z,10.77
2023-01-04T00:39:07.365Z,10.90
2023-01-04T00:40:05.402Z,10.14
2023-01-04T00:41:03.795Z,10.68
2023-01-04T00:42:05.297Z,10.50
2023-01-04T00:43:02.181Z,10.71
2023-01-04T00:43:59.945Z,9.31
2023-01-04T00:44:56.772Z,10.73
2023-01-04T00:45:54.462Z,10.16
2023-01-04T00:46:51.339Z,10.69
2023-01-04T00:47:48.192Z,10.72
2023-01-04T00:48:48.722Z,10.64
2023-01-04T00:49:45.907Z,10.00
2023-01-04T00:50:47.010Z,10.83
2023-01-04T00:51:43.809Z,10.73
2023-01-04T00:52:40.663Z,10.36
2023-01-04T00:53:37.488Z,10.60
2023-01-04T00:54:34.257Z,8.72
2023-01-04T00:55:31.424Z,10.83
2023-01-04T00:56:32.493Z,10.44
2023-01-04T00:57:29.203Z,10.47
2023-01-04T00:58:25.974Z,10.45
2023-01-04T00:59:23.360Z,10.20
2023-01-04T01:00:20.339Z,10.68
2023-01-04T01:01:17.241Z,10.44
2023-01-04T01:02:14.342Z,10.70
2023-01-04T01:03:11.495Z,10.19
2023-01-04T01:04:12.933Z,10.67
2023-01-04T01:05:10.196Z,10.57
2023-01-04T01:06:08.611Z,10.04
2023-01-04T01:07:05.379Z,10.48
2023-01-04T01:08:24.673Z,10.66
2023-01-04T01:09:23.353Z,10.52
2023-01-04T01:10:20.341Z,10.32
2023-01-04T01:11:17.622Z,10.47
2023-01-04T01:12:14.358Z,10.04
2023-01-04T01:13:11.120Z,10.57
2023-01-04T01:14:09.488Z,10.48
2023-01-04T01:15:07.021Z,10.50
2023-01-04T01:16:06.543Z,10.46
2023-01-04T01:17:03.676Z,9.90
2023-01-04T01:18:00.505Z,10.42
2023-01-04T01:18:57.345Z,10.19
2023-01-04T01:19:54.340Z,10.61
2023-01-04T01:20:53.954Z,10.35
2023-01-04T01:21:50.791Z,10.02
2023-01-04T01:22:47.552Z,10.46
2023-01-04T01:23:44.902Z,10.11
2023-01-04T01:24:41.683Z,10.45
2023-01-04T01:25:38.490Z,9.95
2023-01-04T01:26:35.783Z,10.14
2023-01-04T01:27:32.583Z,10.24
2023-01-04T01:28:30.227Z,10.39
2023-01-04T01:29:27.069Z,10.24
2023-01-04T01:30:23.905Z,10.47
2023-01-04T01:31:23.884Z,10.53
2023-01-04T01:32:20.678Z,10.47
2023-01-04T01:33:17.446Z,10.16
2023-01-04T01:34:15.221Z,10.13
2023-01-04T01:35:11.985Z,10.59
2023-01-04T01:36:10.732Z,10.37
2023-01-04T01:37:07.498Z,10.40
2023-01-04T01:38:04.444Z,10.65
2023-01-04T01:39:01.231Z,10.52
2023-01-04T01:39:58.055Z,10.53
2023-01-04T01:40:54.824Z,10.72
2023-01-04T01:41:51.687Z,10.46
2023-01-04T01:42:48.534Z,10.61
2023-01-04T01:43:56.704Z,10.57
2023-01-04T01:45:28.566Z,10.50
2023-01-04T01:46:35.506Z,10.50
2023-01-04T01:47:42.977Z,10.16
2023-01-04T01:48:41.519Z,10.33
2023-01-04T01:49:39.853Z,10.69
2023-01-04T01:50:44.529Z,9.81
2023-01-04T01:51:42.825Z,10.51
2023-01-04T01:52:41.640Z,10.37
2023-01-04T01:53:44.063Z,9.84
2023-01-04T01:54:58.407Z,10.45
2023-01-04T01:55:58.340Z,10.54
2023-01-04T01:57:01.118Z,10.58
2023-01-04T01:58:00.679Z,10.31
2023-01-04T01:59:00.249Z,10.18
2023-01-04T02:00:05.178Z,10.34
2023-01-04T02:01:03.519Z,10.23
2023-01-04T02:02:00.406Z,10.20
2023-01-04T02:03:16.580Z,9.09
2023-01-04T02:04:15.487Z,10.27
2023-01-04T02:05:14.235Z,9.98
2023-01-04T02:06:17.782Z,10.40
2023-01-04T02:07:20.208Z,10.38
2023-01-04T02:08:20.246Z,10.21
2023-01-04T02:09:19.507Z,10.30
2023-01-04T02:10:17.090Z,10.34
2023-01-04T02:11:14.004Z,10.35
2023-01-04T02:12:12.269Z,10.19
2023-01-04T02:13:14.708Z,10.26
2023-01-04T02:14:29.010Z,10.23
2023-01-04T02:15:33.643Z,9.63
2023-01-04T02:16:46.279Z,10.26
2023-01-04T02:18:03.165Z,9.45
2023-01-04T02:19:28.327Z,10.24
2023-01-04T02:20:57.198Z,10.27
2023-01-04T02:22:15.422Z,10.21
2023-01-04T02:23:27.869Z,10.09
2023-01-04T02:24:47.016Z,9.70
2023-01-04T02:26:41.218Z,9.91
2023-01-04T02:27:59.403Z,10.00
2023-01-04T02:29:23.790Z,9.96
2023-01-04T02:30:38.801Z,9.97
2023-01-04T02:31:47.748Z,10.01
2023-01-04T02:32:50.072Z,9.90
2023-01-04T02:34:00.160Z,9.98
2023-01-04T02:35:09.130Z,9.92
2023-01-04T02:36:28.809Z,10.02
2023-01-04T02:37:53.559Z,9.47
2023-01-04T02:38:56.224Z,9.84
2023-01-04T02:40:26.748Z,9.74
2023-01-04T02:41:26.495Z,9.79
2023-01-04T02:42:58.550Z,9.47
2023-01-04T02:44:30.125Z,9.75
2023-01-04T02:45:36.681Z,9.91
2023-01-04T02:46:45.104Z,9.68
2023-01-04T02:48:16.242Z,9.75
2023-01-04T02:49:31.774Z,9.32
2023-01-04T02:50:35.982Z,9.63
2023-01-04T02:51:36.211Z,9.67
2023-01-04T02:52:33.834Z,9.84
2023-01-04T02:53:40.097Z,8.76
2023-01-04T02:54:38.895Z,9.74
2023-01-04T02:55:47.336Z,9.66
2023-01-04T02:57:09.160Z,9.64
2023-01-04T02:58:23.128Z,8.53
2023-01-04T02:59:48.045Z,9.91
2023-01-04T03:01:18.065Z,9.79
2023-01-04T03:02:57.794Z,9.63
2023-01-04T03:04:52.365Z,8.66
2023-01-04T03:06:18.382Z,9.74
2023-01-04T03:07:23.850Z,9.71
2023-01-04T03:08:33.768Z,9.13
2023-01-04T03:09:35.955Z,9.54
2023-01-04T03:10:51.982Z,9.22
2023-01-04T03:12:23.178Z,9.32
2023-01-04T03:13:29.574Z,9.39
2023-01-04T03:14:33.835Z,9.50
2023-01-04T03:15:37.149Z,9.09
2023-01-04T03:16:39.116Z,9.02
2023-01-04T03:17:46.944Z,8.62
2023-01-04T03:18:50.332Z,9.42
2023-01-04T03:19:56.658Z,9.24
2023-01-04T03:20:59.203Z,9.24
2023-01-04T03:21:56.039Z,9.46
2023-01-04T03:23:18.380Z,9.36
2023-01-04T03:24:33.660Z,9.16
2023-01-04T03:26:12.117Z,9.03
2023-01-04T03:27:27.313Z,8.97
2023-01-04T03:28:49.366Z,9.55
2023-01-04T03:30:28.185Z,9.28
2023-01-04T03:31:56.815Z,9.09
2023-01-04T03:33:27.723Z,9.16
2023-01-04T03:34:43.477Z,8.45
2023-01-04T03:35:56.556Z,8.88
2023-01-04T03:37:05.971Z,9.56
2023-01-04T03:38:28.993Z,9.24
2023-01-04T03:40:11.600Z,9.39
2023-01-04T03:41:35.237Z,9.28
2023-01-04T03:43:09.104Z,9.59
2023-01-04T03:44:49.873Z,9.28
2023-01-04T03:46:13.986Z,9.34
2023-01-04T03:47:37.703Z,8.96
2023-01-04T03:48:46.684Z,8.93
2023-01-04T03:50:03.211Z,9.30
2023-01-04T03:51:25.738Z,8.92
2023-01-04T03:52:24.322Z,9.26
2023-01-04T03:53:21.737Z,8.52
2023-01-04T03:54:23.488Z,9.07
2023-01-04T03:55:22.515Z,9.53
2023-01-04T03:56:23.068Z,9.46
2023-01-04T03:57:21.996Z,9.24
2023-01-04T03:58:20.600Z,9.69
2023-01-04T03:59:17.661Z,9.18
2023-01-04T04:00:18.573Z,9.54
2023-01-04T04:01:17.746Z,9.22
2023-01-04T04:02:19.281Z,9.07
2023-01-04T04:03:16.242Z,9.25
2023-01-04T04:04:31.756Z,9.42
2023-01-04T04:05:47.298Z,9.66
2023-01-04T04:07:02.864Z,8.20
2023-01-04T04:08:18.381Z,9.26
2023-01-04T04:09:15.145Z,9.55
2023-01-04T04:10:11.992Z,9.91
2023-01-04T04:11:27.456Z,9.20
2023-01-04T04:12:24.278Z,8.34
2023-01-04T04:13:22.129Z,9.42
2023-01-04T04:14:18.884Z,9.36
2023-01-04T04:15:16.274Z,9.51
2023-01-04T04:16:13.185Z,9.36
2023-01-04T04:17:09.964Z,9.32
2023-01-04T04:18:07.380Z,9.52
2023-01-04T04:19:08.576Z,9.49
2023-01-04T04:20:06.542Z,9.06
2023-01-04T04:21:03.389Z,9.53
2023-01-04T04:22:00.241Z,9.49
2023-01-04T04:22:57.043Z,9.27
2023-01-04T04:23:57.036Z,9.58
2023-01-04T04:24:53.802Z,8.61
2023-01-04T04:25:50.527Z,9.49
2023-01-04T04:26:47.600Z,8.68
2023-01-04T04:27:44.444Z,9.37
2023-01-04T04:28:41.399Z,9.55
2023-01-04T04:29:38.130Z,9.29
2023-01-04T04:30:35.967Z,9.44
2023-01-04T04:31:32.976Z,9.09
2023-01-04T04:32:29.816Z,9.58
2023-01-04T04:33:26.622Z,9.16
2023-01-04T04:34:23.407Z,8.40
2023-01-04T04:35:20.119Z,8.87
2023-01-04T04:36:16.865Z,9.75
2023-01-04T04:37:13.619Z,9.39
2023-01-04T04:38:10.604Z,9.67
2023-01-04T04:39:07.454Z,9.62
2023-01-04T04:40:05.782Z,9.50
2023-01-04T04:41:31.882Z,9.74
2023-01-04T04:42:28.614Z,9.84
2023-01-04T04:43:25.423Z,9.91
2023-01-04T04:44:22.351Z,10.18
2023-01-04T04:45:19.069Z,9.98
2023-01-04T04:46:15.849Z,9.66
2023-01-04T04:47:12.615Z,10.16
2023-01-04T04:48:09.402Z,10.21
2023-01-04T04:49:06.944Z,9.63
2023-01-04T04:50:03.941Z,9.55
2023-01-04T04:51:00.736Z,9.52
2023-01-04T04:51:57.613Z,9.83
2023-01-04T04:52:56.399Z,9.72
2023-01-04T04:53:53.341Z,9.54
2023-01-04T04:54:50.144Z,9.99
2023-01-04T04:55:46.967Z,9.92
2023-01-04T04:56:43.793Z,9.43
2023-01-04T04:57:40.637Z,9.06
2023-01-04T04:58:37.983Z,9.80
2023-01-04T04:59:36.297Z,9.94
2023-01-04T05:00:33.146Z,9.85
2023-01-04T05:01:30.850Z,9.15
2023-01-04T05:02:28.014Z,9.22
2023-01-04T05:03:25.108Z,9.48
2023-01-04T05:04:21.944Z,9.26
2023-01-04T05:05:18.725Z,9.13
2023-01-04T05:06:15.727Z,9.49
2023-01-04T05:07:12.888Z,8.90
2023-01-04T05:08:09.801Z,9.12
2023-01-04T05:09:06.555Z,9.43
2023-01-04T05:10:03.867Z,9.73
2023-01-04T05:11:00.627Z,9.57
2023-01-04T05:12:26.508Z,9.06
2023-01-04T05:13:23.352Z,9.49
2023-01-04T05:14:20.125Z,9.53
2023-01-04T05:15:17.322Z,8.77
2023-01-04T05:16:14.052Z,9.58
2023-01-04T05:17:10.969Z,9.71
2023-01-04T05:18:10.329Z,9.73
2023-01-04T05:19:07.071Z,9.52
2023-01-04T05:20:04.937Z,9.69
2023-01-04T05:21:02.876Z,9.22
2023-01-04T05:21:59.651Z,9.48
2023-01-04T05:22:56.399Z,8.91
2023-01-04T05:23:53.192Z,9.42
2023-01-04T05:24:49.930Z,9.43
2023-01-04T05:25:56.108Z,9.47
2023-01-04T05:26:52.949Z,9.42
2023-01-04T05:27:49.952Z,9.53
2023-01-04T05:28:53.252Z,9.40
2023-01-04T05:30:08.986Z,9.75
2023-01-04T05:31:05.828Z,9.30
2023-01-04T05:32:02.649Z,8.46
2023-01-04T05:32:59.967Z,9.05
2023-01-04T05:33:56.703Z,9.27
2023-01-04T05:34:53.491Z,8.73
2023-01-04T05:35:52.016Z,9.42
2023-01-04T05:36:48.922Z,9.80
2023-01-04T05:37:45.813Z,9.81
2023-01-04T05:38:42.691Z,8.85
2023-01-04T05:39:39.472Z,9.55
2023-01-04T05:40:36.298Z,9.53
2023-01-04T05:41:51.649Z,9.96
2023-01-04T05:42:49.037Z,9.86
2023-01-04T05:43:45.766Z,9.83
2023-01-04T05:44:42.562Z,8.96
2023-01-04T05:45:40.693Z,9.87
2023-01-04T05:46:37.547Z,9.38
2023-01-04T05:47:34.890Z,9.61
2023-01-04T05:48:31.743Z,10.18
2023-01-04T05:49:28.512Z,9.95
2023-01-04T05:50:25.571Z,9.98
2023-01-04T05:51:22.368Z,9.74
2023-01-04T05:52:20.147Z,9.59
2023-01-04T05:53:18.327Z,10.12
2023-01-04T05:54:20.831Z,10.36
2023-01-04T05:55:18.324Z,10.10
2023-01-04T05:56:15.122Z,10.13
2023-01-04T05:57:12.226Z,10.02
2023-01-04T05:58:09.416Z,10.00
2023-01-04T05:59:06.121Z,9.71
2023-01-04T06:00:05.005Z,10.05
2023-01-04T06:01:02.257Z,8.64
2023-01-04T06:01:59.127Z,9.21
2023-01-04T06:02:57.202Z,9.36
2023-01-04T06:03:54.108Z,9.83
2023-01-04T06:04:58.124Z,8.76
2023-01-04T06:05:55.201Z,8.55
2023-01-04T06:06:52.828Z,9.40
2023-01-04T06:07:50.410Z,9.43
2023-01-04T06:08:47.170Z,9.79
2023-01-04T06:09:44.151Z,9.76
2023-01-04T06:10:40.938Z,9.39
2023-01-04T06:11:37.925Z,9.51
2023-01-04T06:12:34.758Z,9.88
2023-01-04T06:13:31.525Z,9.57
2023-01-04T06:14:28.213Z,9.71
2023-01-04T06:15:25.005Z,9.87
2023-01-04T06:16:22.075Z,9.68
2023-01-04T06:17:18.966Z,9.89
2023-01-04T06:18:15.742Z,9.82
2023-01-04T06:19:12.625Z,9.79
2023-01-04T06:20:11.645Z,9.90
2023-01-04T06:21:08.447Z,8.86
2023-01-04T06:22:05.943Z,9.41
2023-01-04T06:23:02.737Z,9.93
2023-01-04T06:23:59.516Z,9.73
2023-01-04T06:24:56.337Z,9.61
2023-01-04T06:25:53.097Z,9.74
2023-01-04T06:26:49.970Z,8.55
2023-01-04T06:27:46.768Z,9.43
2023-01-04T06:28:43.574Z,9.10
2023-01-04T06:29:40.411Z,9.35
2023-01-04T06:30:37.278Z,9.12
2023-01-04T06:31:34.122Z,9.79
2023-01-04T06:32:30.953Z,9.83
2023-01-04T06:33:27.723Z,9.59
2023-01-04T06:34:30.571Z,9.59
2023-01-04T06:35:28.081Z,9.59
2023-01-04T06:36:24.905Z,8.90
2023-01-04T06:37:21.782Z,9.73
2023-01-04T06:38:18.592Z,8.88
2023-01-04T06:39:15.410Z,9.19
2023-01-04T06:40:12.322Z,9.79
2023-01-04T06:41:09.194Z,9.85
2023-01-04T06:42:07.280Z,9.84
2023-01-04T06:43:04.328Z,9.40
2023-01-04T06:44:01.672Z,9.31
2023-01-04T06:45:01.064Z,9.47
2023-01-04T06:45:57.925Z,9.73
2023-01-04T06:46:54.774Z,10.04
2023-01-04T06:47:54.569Z,9.67
2023-01-04T06:48:52.564Z,9.74
2023-01-04T06:49:49.341Z,9.93
2023-01-04T06:50:46.152Z,9.18
2023-01-04T06:51:42.928Z,9.52
2023-01-04T06:52:40.501Z,9.50
2023-01-04T06:53:37.274Z,9.90
2023-01-04T06:54:34.172Z,8.99
2023-01-04T06:55:30.936Z,9.39
2023-01-04T06:56:28.220Z,9.61
2023-01-04T06:57:25.052Z,9.66
2023-01-04T06:58:21.799Z,8.93
2023-01-04T06:59:18.563Z,9.59
2023-01-04T07:00:15.946Z,9.60
2023-01-04T07:01:12.868Z,8.63
2023-01-04T07:02:14.970Z,8.78
2023-01-04T07:03:13.491Z,9.61
2023-01-04T07:04:12.466Z,9.65
2023-01-04T07:05:09.436Z,9.43
2023-01-04T07:06:08.333Z,9.68
2023-01-04T07:07:05.123Z,9.62
2023-01-04T07:08:07.894Z,9.50
2023-01-04T07:09:05.137Z,9.43
2023-01-04T07:10:09.198Z,9.52
2023-01-04T07:11:06.729Z,9.66
2023-01-04T07:12:03.649Z,8.37
2023-01-04T07:13:00.520Z,9.45
2023-01-04T07:13:57.296Z,9.58
2023-01-04T07:14:54.154Z,8.88
2023-01-04T07:15:50.989Z,8.56
2023-01-04T07:16:47.873Z,8.80
2023-01-04T07:17:47.629Z,9.56
2023-01-04T07:18:44.424Z,8.74
2023-01-04T07:19:41.230Z,9.76
2023-01-04T07:20:39.019Z,9.74
2023-01-04T07:21:35.815Z,9.73
2023-01-04T07:22:32.672Z,8.98
2023-01-04T07:23:29.409Z,9.42
2023-01-04T07:24:30.431Z,9.56
2023-01-04T07:25:27.637Z,8.59
2023-01-04T07:26:24.540Z,9.68
2023-01-04T07:27:21.386Z,9.92
2023-01-04T07:28:38.113Z,9.87
2023-01-04T07:29:34.938Z,9.84
2023-01-04T07:30:31.836Z,9.04
2023-01-04T07:31:28.745Z,9.29
2023-01-04T07:32:25.632Z,9.79
2023-01-04T07:33:22.427Z,9.35
2023-01-04T07:34:22.205Z,9.44
2023-01-04T07:35:19.508Z,9.35
2023-01-04T07:36:16.321Z,8.66
2023-01-04T07:37:16.014Z,9.66
2023-01-04T07:38:12.813Z,9.63
2023-01-04T07:39:11.180Z,8.58
2023-01-04T07:40:08.545Z,9.26
2023-01-04T07:41:05.585Z,9.22
2023-01-04T07:42:02.367Z,9.54
2023-01-04T07:42:59.945Z,9.42
2023-01-04T07:43:56.726Z,9.55
2023-01-04T07:44:53.476Z,9.41
2023-01-04T07:45:50.256Z,9.69
2023-01-04T07:46:47.719Z,9.78
2023-01-04T07:47:44.546Z,9.74
2023-01-04T07:48:41.354Z,9.92
2023-01-04T07:49:38.170Z,9.82
2023-01-04T07:50:34.996Z,9.97
2023-01-04T07:51:33.265Z,10.05
2023-01-04T07:52:30.009Z,9.91
2023-01-04T07:53:27.028Z,9.78
2023-01-04T07:54:24.544Z,9.57
2023-01-04T07:55:21.336Z,9.53
2023-01-04T07:56:19.148Z,9.19
2023-01-04T07:57:16.073Z,8.70
2023-01-04T07:58:12.813Z,9.74
2023-01-04T07:59:13.812Z,9.30
2023-01-04T08:00:11.643Z,9.41
2023-01-04T08:01:14.555Z,9.16
2023-01-04T08:02:12.893Z,9.70
2023-01-04T08:03:09.909Z,9.74
2023-01-04T08:04:09.136Z,9.73
2023-01-04T08:05:06.548Z,8.23
2023-01-04T08:06:09.753Z,9.57
2023-01-04T08:07:06.564Z,9.10
2023-01-04T08:08:03.523Z,8.71
2023-01-04T08:09:01.108Z,9.14
2023-01-04T08:09:57.833Z,9.13
2023-01-04T08:10:54.578Z,9.68
2023-01-04T08:11:51.359Z,9.69
2023-01-04T08:12:48.149Z,9.70
2023-01-04T08:13:44.928Z,9.52
2023-01-04T08:14:41.691Z,9.97
2023-01-04T08:15:38.440Z,9.98
2023-01-04T08:16:38.511Z,10.09
2023-01-04T08:17:35.379Z,10.03
2023-01-04T08:18:32.318Z,10.29
2023-01-04T08:19:29.064Z,10.27
2023-01-04T08:20:25.893Z,9.51
2023-01-04T08:21:23.715Z,10.07
2023-01-04T08:22:20.495Z,10.24
2023-01-04T08:23:17.289Z,9.56
2023-01-04T08:24:19.524Z,10.36
2023-01-04T08:25:16.364Z,10.01
2023-01-04T08:26:14.913Z,10.35
2023-01-04T08:27:11.788Z,9.96
2023-01-04T08:28:08.718Z,9.78
2023-01-04T08:29:06.254Z,9.93
2023-01-04T08:30:04.128Z,10.09
2023-01-04T08:31:06.345Z,9.90
2023-01-04T08:32:04.296Z,9.91
2023-01-04T08:33:01.169Z,10.00
2023-01-04T08:34:01.369Z,10.27
2023-01-04T08:34:58.168Z,10.30
2023-01-04T08:35:54.980Z,8.88
2023-01-04T08:36:53.437Z,9.81
2023-01-04T08:37:50.275Z,9.05
2023-01-04T08:39:00.080Z,10.03
2023-01-04T08:39:58.335Z,10.27
2023-01-04T08:40:59.698Z,10.26
2023-01-04T08:42:07.493Z,10.09
2023-01-04T08:43:07.985Z,10.22
2023-01-04T08:44:04.880Z,10.52
2023-01-04T08:45:02.269Z,9.23
2023-01-04T08:45:59.271Z,10.10
2023-01-04T08:46:56.151Z,9.86
2023-01-04T08:47:53.171Z,8.48
2023-01-04T08:48:52.413Z,8.98
2023-01-04T08:49:49.193Z,10.03
2023-01-04T08:50:45.938Z,9.55
2023-01-04T08:51:43.128Z,9.81
2023-01-04T08:52:39.943Z,9.43
2023-01-04T08:53:37.343Z,9.35
2023-01-04T08:54:34.060Z,9.88
2023-01-04T08:55:31.278Z,9.94
2023-01-04T08:56:28.050Z,9.44
2023-01-04T08:57:24.841Z,9.34
2023-01-04T08:58:23.339Z,9.66
2023-01-04T08:59:21.326Z,9.88
2023-01-04T09:00:21.717Z,9.98
2023-01-04T09:01:18.620Z,9.96
2023-01-04T09:02:28.317Z,9.63
2023-01-04T09:03:25.293Z,9.90
2023-01-04T09:04:22.157Z,9.90
2023-01-04T09:05:22.748Z,9.88
2023-01-04T09:06:22.859Z,9.90
2023-01-04T09:07:20.208Z,9.69
2023-01-04T09:08:17.143Z,10.10
2023-01-04T09:09:14.464Z,9.77
2023-01-04T09:10:11.593Z,9.95
2023-01-04T09:11:12.039Z,9.44
2023-01-04T09:12:09.088Z,9.69
2023-01-04T09:13:06.521Z,9.74
2023-01-04T09:14:07.913Z,9.82
2023-01-04T09:15:06.101Z,9.83
2023-01-04T09:16:08.662Z,9.77
2023-01-04T09:17:05.466Z,9.16
2023-01-04T09:18:31.710Z,9.28
2023-01-04T09:19:22.128Z,9.49
2023-01-04T09:20:19.427Z,9.60
2023-01-04T09:21:19.673Z,9.23
2023-01-04T09:22:16.540Z,9.73
2023-01-04T09:23:13.913Z,9.17
2023-01-04T09:24:10.635Z,9.56
2023-01-04T09:25:10.177Z,9.65
2023-01-04T09:26:11.889Z,9.31
2023-01-04T09:27:08.637Z,9.80
2023-01-04T09:28:08.129Z,9.04
2023-01-04T09:29:05.307Z,9.71
2023-01-04T09:30:02.062Z,9.63
2023-01-04T09:31:18.994Z,9.54
2023-01-04T09:32:16.941Z,9.53
2023-01-04T09:33:13.941Z,9.55
2023-01-04T09:34:15.272Z,9.65
2023-01-04T09:35:16.549Z,9.47
2023-01-04T09:36:16.547Z,9.63
2023-01-04T09:37:13.452Z,9.15
2023-01-04T09:38:10.854Z,9.81
2023-01-04T09:39:16.703Z,9.68
2023-01-04T09:40:31.534Z,9.65
2023-01-04T09:41:38.129Z,10.01
2023-01-04T09:42:41.479Z,9.84
2023-01-04T09:43:51.231Z,10.25
2023-01-04T09:46:29.368Z,9.86
2023-01-04T09:47:44.392Z,9.99
2023-01-04T09:48:44.846Z,9.95
2023-01-04T09:49:50.652Z,10.21
2023-01-04T09:51:02.580Z,10.10
2023-01-04T09:52:11.344Z,10.19
2023-01-04T09:53:11.092Z,10.04
2023-01-04T09:54:17.166Z,9.61
2023-01-04T09:55:39.114Z,9.64
2023-01-04T09:56:38.017Z,9.55
2023-01-04T09:58:06.406Z,9.54
2023-01-04T09:59:14.878Z,9.26
2023-01-04T10:00:27.480Z,9.41
2023-01-04T10:01:31.592Z,9.74
2023-01-04T10:02:45.276Z,9.95
2023-01-04T10:03:54.818Z,10.04
2023-01-04T10:04:52.473Z,10.23
2023-01-04T10:05:54.030Z,9.82
2023-01-04T10:06:53.008Z,10.06
2023-01-04T10:07:50.108Z,9.55
2023-01-04T10:08:47.284Z,9.63
2023-01-04T10:09:44.462Z,9.57
2023-01-04T10:10:50.753Z,9.74
2023-01-04T10:12:24.353Z,9.81
2023-01-04T10:13:44.433Z,9.90
2023-01-04T10:15:10.074Z,8.93
2023-01-04T10:16:30.459Z,9.58
2023-01-04T10:19:23.571Z,9.81
2023-01-04T10:21:11.979Z,9.79
2023-01-04T10:21:39.028Z,10.17
2023-01-04T10:22:59.018Z,9.86
2023-01-04T10:23:58.578Z,9.77
2023-01-04T10:25:23.228Z,9.97
2023-01-04T10:26:35.030Z,9.81
2023-01-04T10:28:01.035Z,9.83
2023-01-04T10:29:15.991Z,10.03
2023-01-04T10:30:12.706Z,9.83
2023-01-04T10:31:42.508Z,9.64
2023-01-04T10:32:43.221Z,9.87
2023-01-04T10:33:48.288Z,9.88
2023-01-04T10:34:47.044Z,10.04
2023-01-04T10:35:46.103Z,9.12
2023-01-04T10:36:47.038Z,9.64
2023-01-04T10:37:48.089Z,9.56
2023-01-04T10:38:45.215Z,9.73
2023-01-04T10:39:45.274Z,9.83
2023-01-04T10:40:43.998Z,9.91
2023-01-04T10:41:56.655Z,10.00
2023-01-04T10:43:05.092Z,9.73
2023-01-04T10:44:10.756Z,9.58
2023-01-04T10:45:51.669Z,9.17
2023-01-04T10:47:08.486Z,9.53
2023-01-04T10:48:23.972Z,9.38
2023-01-04T10:49:35.539Z,9.35
2023-01-04T10:50:50.203Z,9.86
2023-01-04T10:51:58.316Z,9.92
2023-01-04T10:53:07.166Z,9.79
2023-01-04T10:54:27.348Z,9.10
2023-01-04T10:55:34.236Z,9.96
2023-01-04T10:56:42.835Z,9.57
2023-01-04T10:57:52.715Z,9.33
2023-01-04T10:59:19.192Z,9.84
2023-01-04T11:00:20.593Z,10.09
2023-01-04T11:01:25.290Z,10.13
2023-01-04T11:02:48.520Z,9.33
2023-01-04T11:03:56.774Z,9.99
2023-01-04T11:05:04.702Z,10.09
2023-01-04T11:06:19.884Z,9.18
2023-01-04T11:07:24.630Z,9.54
2023-01-04T11:08:51.056Z,9.61
2023-01-04T11:09:50.742Z,10.00
2023-01-04T11:11:01.384Z,8.59
2023-01-04T11:11:58.221Z,10.06
2023-01-04T11:12:55.184Z,10.31
2023-01-04T11:13:52.400Z,8.92
2023-01-04T11:14:51.352Z,9.53
2023-01-04T11:15:48.291Z,8.95
2023-01-04T11:16:50.916Z,9.89
2023-01-04T11:17:50.577Z,10.31
2023-01-04T11:18:50.621Z,10.26
2023-01-04T11:19:48.718Z,9.80
2023-01-04T11:20:45.566Z,10.25
2023-01-04T11:22:12.199Z,10.50
2023-01-04T11:23:20.342Z,9.80
2023-01-04T11:24:33.932Z,10.19
2023-01-04T11:25:39.769Z,10.03
2023-01-04T11:26:42.001Z,10.02
2023-01-04T11:27:51.581Z,9.71
2023-01-04T11:28:58.039Z,9.86
2023-01-04T11:30:11.566Z,10.06
2023-01-04T11:31:09.379Z,10.38
2023-01-04T11:32:39.566Z,10.28
2023-01-04T11:34:03.082Z,9.92
2023-01-04T11:35:00.114Z,9.78
2023-01-04T11:35:59.612Z,10.44
2023-01-04T11:36:56.480Z,10.46
2023-01-04T11:38:10.504Z,9.55
2023-01-04T11:39:22.386Z,10.20
2023-01-04T11:40:23.404Z,10.27
2023-01-04T11:41:20.209Z,9.90
2023-01-04T11:42:21.994Z,10.30
2023-01-04T11:43:20.855Z,10.00
2023-01-04T11:44:19.407Z,10.59
2023-01-04T11:45:22.881Z,10.16
2023-01-04T11:46:19.685Z,10.31
2023-01-04T11:47:23.390Z,10.19
2023-01-04T11:48:34.107Z,9.79
2023-01-04T11:49:36.116Z,10.39
2023-01-04T11:50:43.196Z,9.22
2023-01-04T11:51:40.937Z,9.83
2023-01-04T11:52:39.731Z,9.62
2023-01-04T11:53:38.307Z,10.15
2023-01-04T11:54:35.207Z,9.89
2023-01-04T11:55:33.202Z,10.21
2023-01-04T11:56:32.962Z,10.41
2023-01-04T11:57:29.746Z,10.38
2023-01-04T11:58:28.081Z,10.07
2023-01-04T11:59:25.828Z,10.64
2023-01-04T12:00:23.160Z,9.71
2023-01-04T12:01:23.468Z,10.21
2023-01-04T12:03:43.860Z,10.33
2023-01-04T12:04:40.764Z,10.95
2023-01-04T12:05:37.675Z,10.81
2023-01-04T12:06:59.248Z,10.83
2023-01-04T12:07:56.369Z,8.49
2023-01-04T12:08:53.307Z,9.43
2023-01-04T12:09:50.153Z,10.49
2023-01-04T12:10:47.208Z,9.71
2023-01-04T12:11:51.371Z,10.38
2023-01-04T12:12:48.590Z,9.75
2023-01-04T12:13:45.811Z,10.81
2023-01-04T12:14:49.309Z,10.55
2023-01-04T12:16:02.530Z,10.92
2023-01-04T12:17:02.420Z,11.02
2023-01-04T12:18:09.829Z,11.00
2023-01-04T12:19:13.701Z,10.85
2023-01-04T12:20:20.212Z,11.01
2023-01-04T12:21:24.499Z,11.31
2023-01-04T12:22:39.320Z,11.19
2023-01-04T12:23:36.152Z,10.38
2023-01-04T12:24:34.913Z,9.92
2023-01-04T12:25:54.418Z,10.54
2023-01-04T12:26:55.924Z,10.97
2023-01-04T12:27:55.475Z,10.87
2023-01-04T12:29:22.367Z,10.80
2023-01-04T12:30:37.562Z,11.21
2023-01-04T12:31:34.407Z,10.76
2023-01-04T12:32:31.196Z,10.96
2023-01-04T12:33:30.929Z,10.90
2023-01-04T12:34:30.770Z,11.03
2023-01-04T12:35:58.811Z,11.35
2023-01-04T12:37:05.136Z,11.41
2023-01-04T12:38:02.517Z,10.60
2023-01-04T12:39:03.456Z,11.26
2023-01-04T12:40:00.393Z,11.43
2023-01-04T12:40:57.349Z,9.38
2023-01-04T12:42:03.922Z,11.39
2023-01-04T12:43:16.120Z,11.33
2023-01-04T12:44:43.281Z,11.37
2023-01-04T12:45:40.645Z,10.82
2023-01-04T12:47:01.081Z,9.71
2023-01-04T12:48:36.313Z,10.55
2023-01-04T12:49:34.194Z,10.80
2023-01-04T12:51:31.105Z,10.88
2023-01-04T12:52:48.439Z,10.91
2023-01-04T12:54:31.914Z,8.24
2023-01-04T12:55:31.766Z,10.71
2023-01-04T12:57:05.819Z,10.79
2023-01-04T13:00:14.681Z,11.06
2023-01-04T13:01:23.803Z,11.10
2023-01-04T13:02:23.524Z,10.70
2023-01-04T13:03:23.083Z,10.99
2023-01-04T13:04:41.349Z,11.15
2023-01-04T13:05:57.752Z,11.10
2023-01-04T13:07:43.116Z,10.78
2023-01-04T13:08:46.419Z,11.09
2023-01-04T13:09:56.718Z,11.24
2023-01-04T13:10:56.562Z,10.31
2023-01-04T13:12:31.320Z,10.96
2023-01-04T13:13:36.955Z,11.04
2023-01-04T13:14:44.667Z,11.17
2023-01-04T13:16:18.197Z,10.95
2023-01-04T13:17:17.781Z,10.93
2023-01-04T13:18:34.142Z,10.94
2023-01-04T13:19:31.707Z,11.41
2023-01-04T13:20:30.822Z,10.60
2023-01-04T13:21:46.815Z,10.82
2023-01-04T13:22:54.473Z,10.78
2023-01-04T13:24:01.400Z,9.78
2023-01-04T13:25:02.984Z,11.00
2023-01-04T13:26:28.890Z,10.80
2023-01-04T13:27:31.860Z,11.09
2023-01-04T13:28:29.589Z,10.45
2023-01-04T13:29:31.569Z,11.15
2023-01-04T13:30:33.685Z,11.10
2023-01-04T13:31:34.029Z,11.35
2023-01-04T13:32:47.009Z,11.17
2023-01-04T13:33:51.085Z,11.06
2023-01-04T13:35:01.834Z,10.64
2023-01-04T13:36:14.543Z,10.75
2023-01-04T13:37:11.286Z,10.72
2023-01-04T13:38:16.809Z,11.03
2023-01-04T13:39:31.565Z,10.93
2023-01-04T13:40:35.912Z,10.77
2023-01-04T13:41:32.815Z,10.28
2023-01-04T13:42:33.505Z,11.19
2023-01-04T13:43:47.566Z,11.31
2023-01-04T13:45:22.235Z,11.36
2023-01-04T13:46:22.798Z,10.55
2023-01-04T13:47:19.700Z,10.69
2023-01-04T13:48:23.010Z,10.22
2023-01-04T13:49:21.153Z,11.22
2023-01-04T13:50:26.843Z,10.98
2023-01-04T13:51:37.752Z,10.94
2023-01-04T13:52:53.078Z,10.51
2023-01-04T13:53:58.542Z,10.31